2008 RAMMASUN (2008128N07134)


On this page: IBTrACS data - Map and Plots - Positions - Intensities - Original source data

Summary

Start May 6
End May 14
Basin WP
LMI 135 kt
Sources jtwc_wp
tokyo
cma
hko
In WMO? Yes
Previous storm 2008 NARGIS (NI)
Previous in basin 2008 NEOGURI (WP)
Concurrent storms 2008 RAMMASUN (WP)
2008 HALONG (WP)
2008 MATMO (WP)
Next in basin 2008 HALONG (WP)
Next storm 2008 HALONG (WP)

top of page IBTrACS Data: File Access

top of page HURSAT Data: File Access

Image of storm

top of page Plots:

Map of storm track will not appear if FTP is down
Time series of cyclone Maximum Sustained Wind will not appear if FTP is down
Time series of cyclone Minimum Central Pressure will not appear if FTP is down

top of page Track Data:Position

jtwc_wp tokyo cma hko
Date Lat Lon Lat Lon Lat Lon Lat Lon
2008-05-06 18:00:00 7.2 134.2
2008-05-07 00:00:00 7.0 133.5 7.8 133.3 7.7 133.3
2008-05-07 06:00:00 7.4 132.9 7.8 132.5 7.7 132.5 7.4 132.8
2008-05-07 12:00:00 7.7 132.4 8.1 131.8 7.9 131.8 7.7 132.3
2008-05-07 18:00:00 7.9 132.1 8.5 131.6 8.2 131.5 8.2 131.8
2008-05-08 00:00:00 8.2 132.0 8.9 131.3 8.6 131.3 8.8 131.6
2008-05-08 06:00:00 8.7 132.0 9.4 131.3 9.0 131.3 9.4 131.6
2008-05-08 12:00:00 9.4 131.9 9.8 131.3 9.6 131.4 9.8 131.6
2008-05-08 18:00:00 10.3 132.0 10.2 131.5 10.2 131.6 10.2 131.6
2008-05-09 00:00:00 11.2 132.2 11.0 131.7 11.1 132.1 11.0 131.8
2008-05-09 06:00:00 12.0 132.2 11.8 132.0 12.0 132.1 12.0 132.1
2008-05-09 12:00:00 12.8 132.1 12.7 132.1 12.7 132.1 12.8 132.1
2008-05-09 18:00:00 13.6 132.1 13.6 132.1 13.6 132.1 13.6 132.1
2008-05-10 00:00:00 14.5 132.1 14.5 132.0 14.5 132.0 14.5 132.0
2008-05-10 06:00:00 15.6 132.1 15.5 132.1 15.5 132.1 15.5 132.1
2008-05-10 12:00:00 16.9 132.0 16.8 132.0 16.8 132.0 16.9 132.0
2008-05-10 18:00:00 18.2 131.9 18.1 131.9 18.1 131.9 18.1 131.9
2008-05-11 00:00:00 19.5 131.8 19.4 131.8 19.4 131.8 19.4 131.8
2008-05-11 06:00:00 20.8 132.1 20.7 132.1 20.7 132.1 20.7 132.1
2008-05-11 12:00:00 22.1 132.6 22.0 132.7 22.0 132.7 22.0 132.7
2008-05-11 18:00:00 23.7 133.5 23.7 133.5 23.6 133.5 23.7 133.5
2008-05-12 00:00:00 25.4 134.6 25.2 134.6 25.2 134.5 25.2 134.6
2008-05-12 06:00:00 27.4 136.3 27.3 136.3 27.3 135.9 27.3 136.3
2008-05-12 12:00:00 29.1 138.3 29.4 138.7 29.2 138.4 29.4 138.7
2008-05-12 18:00:00 30.5 140.4 30.5 140.2 30.3 140.2 30.5 140.2
jtwc_wp tokyo cma hko
2008-05-13 00:00:00 31.6 142.4 31.8 142.2 31.8 141.9
2008-05-13 06:00:00 32.6 144.5 33.0 143.9 32.9 143.8
2008-05-13 12:00:00 33.4 146.8 33.6 145.3 33.6 145.4
2008-05-13 18:00:00 34.3 147.4 34.3 147.4
2008-05-14 00:00:00 34.9 149.9 34.9 149.9
2008-05-14 06:00:00 35.5 152.2

top of pageTrack Data:Intensity

jtwc_wp tokyo cma hko
Date Wind Pres Wind Pres Wind Pres Wind Pres
2008-05-06 18:00:00 20. 1004.
2008-05-07 00:00:00 20. 1005. 1004. 29. 1004.
2008-05-07 06:00:00 30. 1001. 1000. 29. 1000. 25. 1001.
2008-05-07 12:00:00 30. 1000. 1000. 29. 1000. 25. 1001.
2008-05-07 18:00:00 35. 996. 35. 996. 35. 996. 30. 1000.
2008-05-08 00:00:00 35. 996. 35. 994. 35. 996. 35. 995.
2008-05-08 06:00:00 35. 996. 40. 992. 39. 995. 40. 992.
2008-05-08 12:00:00 45. 989. 45. 990. 45. 990. 45. 990.
2008-05-08 18:00:00 55. 982. 50. 985. 49. 990. 50. 985.
2008-05-09 00:00:00 65. 974. 55. 980. 54. 985. 55. 980.
2008-05-09 06:00:00 70. 970. 65. 970. 64. 975. 65. 970.
2008-05-09 12:00:00 85. 959. 75. 955. 78. 960. 70. 965.
2008-05-09 18:00:00 100. 948. 85. 945. 87. 950. 75. 960.
2008-05-10 00:00:00 120. 933. 95. 935. 97. 940. 85. 950.
2008-05-10 06:00:00 125. 929. 100. 925. 97. 940. 95. 940.
2008-05-10 12:00:00 135. 922. 105. 915. 107. 935. 105. 925.
2008-05-10 18:00:00 135. 922. 105. 915. 107. 935. 100. 930.
2008-05-11 00:00:00 135. 922. 100. 920. 107. 935. 100. 930.
2008-05-11 06:00:00 120. 933. 95. 925. 97. 940. 95. 935.
2008-05-11 12:00:00 115. 937. 85. 935. 87. 950. 90. 940.
2008-05-11 18:00:00 95. 952. 80. 945. 78. 960. 80. 950.
2008-05-12 00:00:00 85. 959. 75. 955. 78. 960. 75. 955.
2008-05-12 06:00:00 75. 967. 70. 965. 68. 970. 70. 960.
2008-05-12 12:00:00 55. 982. 65. 970. 58. 980. 60. 975.
2008-05-12 18:00:00 50. 985. 55. 980. 49. 985. 55. 980.
jtwc_wp tokyo cma hko
2008-05-13 00:00:00 40. 993. 988. 39. 990.
2008-05-13 06:00:00 35. 996. 992. 35. 992.
2008-05-13 12:00:00 30. 1000. 1000. 29. 1000.
2008-05-13 18:00:00 1004. 29. 1004.
2008-05-14 00:00:00 1008. 29. 1008.
2008-05-14 06:00:00 1010.

top of page Links to source data

Source Source file Format
jtwc_wp bwp032008.txt ATCF
tokyo bst_all.txt:Line=57139:RAMMASUN:802 JMA text table
cma CH2008BST.txt:Storm=3:Rammasun CMA text table
hko tc-besttrack-data.txt:Line=33040:RAMMASUN HKO Text table